Time,TemperatureF,DewpointF,PressureIn,WindDirection,WindDirectionDegrees,WindSpeedMPH,WindSpeedGustMPH,Humidity,HourlyPrecipIn,Conditions,Clouds,dailyrainin,SoftwareType,DateUTC
2013-06-24 00:00:00,76.3,72.8,30.14,East,99,1.0,4.0,89,0.00,,---,0.00,VWS V14.01,2013-06-24 04:00:00,
2013-06-24 00:01:00,76.3,72.8,30.14,East,99,1.0,2.0,89,0.00,,---,0.00,VWS V14.01,2013-06-24 04:01:00,
2013-06-24 00:06:00,76.3,72.8,30.14,East,99,0.0,2.0,89,0.00,,---,0.00,VWS V14.01,2013-06-24 04:06:00,
2013-06-24 00:11:00,76.2,72.7,30.14,East,99,0.0,2.0,89,0.00,,---,0.00,VWS V14.01,2013-06-24 04:11:00,
2013-06-24 00:16:00,76.2,72.7,30.15,East,99,0.0,2.0,89,0.00,,---,0.00,VWS V14.01,2013-06-24 04:16:00,
2013-06-24 00:21:00,76.1,73.0,30.15,East,99,0.0,2.0,90,0.00,,---,0.00,VWS V14.01,2013-06-24 04:21:00,
2013-06-24 00:26:00,76.0,72.9,30.15,East,99,2.0,2.0,90,0.00,,---,0.00,VWS V14.01,2013-06-24 04:26:00,
2013-06-24 00:30:00,76.0,72.9,30.15,East,99,1.0,2.0,90,0.00,,---,0.00,VWS V14.01,2013-06-24 04:30:00,
2013-06-24 00:31:00,76.0,72.9,30.15,East,99,0.0,2.0,90,0.00,,---,0.00,VWS V14.01,2013-06-24 04:31:00,
2013-06-24 00:36:00,75.9,72.8,30.15,East,99,3.0,4.0,90,0.00,,---,0.00,VWS V14.01,2013-06-24 04:36:00,
2013-06-24 00:41:00,75.8,72.7,30.15,East,99,0.0,4.0,90,0.00,,---,0.00,VWS V14.01,2013-06-24 04:41:00,
2013-06-24 00:46:00,75.7,72.6,30.15,East,99,0.0,4.0,90,0.00,,---,0.00,VWS V14.01,2013-06-24 04:46:00,
2013-06-24 00:51:00,75.6,72.5,30.15,East,99,0.0,4.0,90,0.00,,---,0.00,VWS V14.01,2013-06-24 04:51:00,
2013-06-24 00:56:00,75.5,72.7,30.15,East,99,0.0,4.0,91,0.00,,---,0.00,VWS V14.01,2013-06-24 04:56:00,
2013-06-24 01:00:00,75.5,72.7,30.15,East,99,0.0,4.0,91,0.00,,---,0.00,VWS V14.01,2013-06-24 05:00:00,
2013-06-24 01:01:00,75.5,72.7,30.15,East,99,1.0,3.0,91,0.00,,---,0.00,VWS V14.01,2013-06-24 05:01:00,
2013-06-24 01:06:00,75.5,72.7,30.14,East,99,0.0,3.0,91,0.00,,---,0.00,VWS V14.01,2013-06-24 05:06:00,
2013-06-24 01:11:00,75.5,72.7,30.15,East,99,0.0,3.0,91,0.00,,---,0.00,VWS V14.01,2013-06-24 05:11:00,
2013-06-24 01:16:00,75.4,72.6,30.15,East,99,0.0,3.0,91,0.00,,---,0.00,VWS V14.01,2013-06-24 05:16:00,
2013-06-24 01:21:00,75.4,72.6,30.15,East,99,0.0,3.0,91,0.00,,---,0.00,VWS V14.01,2013-06-24 05:21:00,
2013-06-24 01:26:00,75.2,72.4,30.14,East,99,0.0,3.0,91,0.00,,---,0.00,VWS V14.01,2013-06-24 05:26:00,
2013-06-24 01:30:00,74.9,72.1,30.14,East,99,0.0,3.0,91,0.00,,---,0.00,VWS V14.01,2013-06-24 05:30:00,
2013-06-24 01:31:00,74.9,72.1,30.14,East,99,0.0,0.0,91,0.00,,---,0.00,VWS V14.01,2013-06-24 05:31:00,
2013-06-24 01:36:00,74.5,72.0,30.14,East,99,0.0,0.0,92,0.00,,---,0.00,VWS V14.01,2013-06-24 05:36:00,
2013-06-24 01:41:00,74.2,71.7,30.14,East,99,0.0,0.0,92,0.00,,---,0.00,VWS V14.01,2013-06-24 05:41:00,
2013-06-24 01:46:00,74.0,71.8,30.14,East,99,0.0,0.0,93,0.00,,---,0.00,VWS V14.01,2013-06-24 05:46:00,
2013-06-24 01:51:00,73.8,71.7,30.13,East,99,0.0,0.0,93,0.00,,---,0.00,VWS V14.01,2013-06-24 05:51:00,
2013-06-24 01:56:00,73.6,71.5,30.13,East,99,0.0,0.0,93,0.00,,---,0.00,VWS V14.01,2013-06-24 05:56:00,
2013-06-24 02:00:00,73.4,71.3,30.13,East,99,0.0,0.0,93,0.00,,---,0.00,VWS V14.01,2013-06-24 06:00:00,
2013-06-24 02:01:00,73.3,71.2,30.13,East,99,0.0,0.0,93,0.00,,---,0.00,VWS V14.01,2013-06-24 06:01:00,
2013-06-24 02:06:00,73.0,70.9,30.13,East,99,0.0,0.0,93,0.00,,---,0.00,VWS V14.01,2013-06-24 06:06:00,
2013-06-24 02:11:00,72.9,71.1,30.13,East,99,0.0,0.0,94,0.00,,---,0.00,VWS V14.01,2013-06-24 06:11:00,
2013-06-24 02:17:00,72.9,71.1,30.13,East,99,0.0,1.0,94,0.00,,---,0.00,VWS V14.01,2013-06-24 06:17:00,
2013-06-24 02:22:00,73.0,71.2,30.13,East,99,0.0,1.0,94,0.00,,---,0.00,VWS V14.01,2013-06-24 06:22:00,
2013-06-24 02:27:00,73.0,71.2,30.13,East,99,0.0,1.0,94,0.00,,---,0.00,VWS V14.01,2013-06-24 06:27:00,
2013-06-24 02:30:00,73.0,71.2,30.13,East,99,0.0,1.0,94,0.00,,---,0.00,VWS V14.01,2013-06-24 06:30:00,
2013-06-24 02:32:00,72.9,71.1,30.13,East,99,0.0,0.0,94,0.00,,---,0.00,VWS V14.01,2013-06-24 06:32:00,
2013-06-24 02:37:00,72.8,71.0,30.13,East,99,0.0,1.0,94,0.00,,---,0.00,VWS V14.01,2013-06-24 06:37:00,
2013-06-24 02:49:00,72.2,70.4,30.13,East,99,0.0,1.0,94,0.00,,---,0.00,VWS V14.01,2013-06-24 06:49:00,
2013-06-24 02:54:00,72.0,70.2,30.13,East,99,0.0,1.0,94,0.00,,---,0.00,VWS V14.01,2013-06-24 06:54:00,
2013-06-24 02:59:00,71.8,70.0,30.13,East,99,0.0,1.0,94,0.00,,---,0.00,VWS V14.01,2013-06-24 06:59:00,
2013-06-24 03:00:00,71.8,70.0,30.13,East,99,0.0,1.0,94,0.00,,---,0.00,VWS V14.01,2013-06-24 07:00:00,
2013-06-24 03:04:00,71.7,69.9,30.13,East,99,0.0,0.0,94,0.00,,---,0.00,VWS V14.01,2013-06-24 07:04:00,
2013-06-24 03:09:00,71.6,70.1,30.13,East,99,0.0,1.0,95,0.00,,---,0.00,VWS V14.01,2013-06-24 07:09:00,
2013-06-24 03:14:00,71.6,70.1,30.13,East,99,0.0,1.0,95,0.00,,---,0.00,VWS V14.01,2013-06-24 07:14:00,
2013-06-24 03:19:00,71.5,70.0,30.14,East,99,0.0,1.0,95,0.00,,---,0.00,VWS V14.01,2013-06-24 07:19:00,
2013-06-24 03:25:00,71.4,69.9,30.13,East,99,0.0,1.0,95,0.00,,---,0.00,VWS V14.01,2013-06-24 07:25:00,
2013-06-24 03:30:00,71.4,69.9,30.14,East,99,0.0,1.0,95,0.00,,---,0.00,VWS V14.01,2013-06-24 07:30:00,
2013-06-24 03:35:00,71.3,69.8,30.14,East,99,0.0,0.0,95,0.00,,---,0.00,VWS V14.01,2013-06-24 07:35:00,
2013-06-24 03:40:00,71.3,69.8,30.14,East,99,0.0,0.0,95,0.00,,---,0.00,VWS V14.01,2013-06-24 07:40:00,
2013-06-24 03:45:00,71.3,69.8,30.14,East,99,0.0,0.0,95,0.00,,---,0.00,VWS V14.01,2013-06-24 07:45:00,
2013-06-24 03:50:00,71.5,70.0,30.14,East,99,0.0,0.0,95,0.00,,---,0.00,VWS V14.01,2013-06-24 07:50:00,
2013-06-24 03:55:00,71.7,70.2,30.14,East,99,0.0,0.0,95,0.00,,---,0.00,VWS V14.01,2013-06-24 07:55:00,
2013-06-24 04:00:00,71.7,70.2,30.14,East,99,0.0,0.0,95,0.00,,---,0.00,VWS V14.01,2013-06-24 08:00:00,
2013-06-24 04:05:00,71.7,70.2,30.14,East,99,0.0,1.0,95,0.00,,---,0.00,VWS V14.01,2013-06-24 08:05:00,
2013-06-24 04:10:00,71.6,70.1,30.14,East,99,0.0,1.0,95,0.00,,---,0.00,VWS V14.01,2013-06-24 08:10:00,
2013-06-24 04:15:00,71.5,70.0,30.13,East,99,0.0,1.0,95,0.00,,---,0.00,VWS V14.01,2013-06-24 08:15:00,
2013-06-24 04:20:00,71.3,69.8,30.13,East,99,0.0,1.0,95,0.00,,---,0.00,VWS V14.01,2013-06-24 08:20:00,
2013-06-24 04:25:00,71.5,70.3,30.13,East,99,0.0,1.0,96,0.00,,---,0.00,VWS V14.01,2013-06-24 08:25:00,
2013-06-24 04:30:00,71.4,70.2,30.13,East,99,0.0,0.0,96,0.00,,---,0.00,VWS V14.01,2013-06-24 08:30:00,
2013-06-24 04:35:00,71.2,69.7,30.13,East,99,1.0,2.0,95,0.00,,---,0.00,VWS V14.01,2013-06-24 08:35:00,
2013-06-24 04:41:00,71.2,69.7,30.13,East,99,2.0,3.0,95,0.00,,---,0.00,VWS V14.01,2013-06-24 08:41:00,
2013-06-24 04:46:00,71.2,69.7,30.13,East,99,2.0,3.0,95,0.00,,---,0.00,VWS V14.01,2013-06-24 08:46:00,
2013-06-24 04:51:00,71.3,70.1,30.13,East,99,0.0,3.0,96,0.00,,---,0.00,VWS V14.01,2013-06-24 08:51:00,
2013-06-24 04:56:00,71.2,70.0,30.13,East,99,0.0,3.0,96,0.00,,---,0.00,VWS V14.01,2013-06-24 08:56:00,
2013-06-24 05:00:00,71.2,70.0,30.13,East,99,0.0,3.0,96,0.00,,---,0.00,VWS V14.01,2013-06-24 09:00:00,
2013-06-24 05:01:00,71.2,70.0,30.13,East,99,0.0,0.0,96,0.00,,---,0.00,VWS V14.01,2013-06-24 09:01:00,
2013-06-24 05:06:00,71.1,69.9,30.13,East,99,0.0,0.0,96,0.00,,---,0.00,VWS V14.01,2013-06-24 09:06:00,
2013-06-24 05:11:00,71.1,69.9,30.14,East,99,0.0,0.0,96,0.00,,---,0.00,VWS V14.01,2013-06-24 09:11:00,
2013-06-24 05:17:00,71.0,69.8,30.14,East,99,0.0,0.0,96,0.00,,---,0.00,VWS V14.01,2013-06-24 09:17:00,
2013-06-24 05:22:00,70.9,69.7,30.14,East,99,0.0,0.0,96,0.00,,---,0.00,VWS V14.01,2013-06-24 09:22:00,
2013-06-24 05:27:00,70.9,69.7,30.14,East,99,0.0,0.0,96,0.00,,---,0.00,VWS V14.01,2013-06-24 09:27:00,
2013-06-24 05:30:00,70.8,69.6,30.14,East,99,0.0,0.0,96,0.00,,---,0.00,VWS V14.01,2013-06-24 09:30:00,
2013-06-24 05:32:00,70.8,69.6,30.15,East,99,0.0,0.0,96,0.00,,---,0.00,VWS V14.01,2013-06-24 09:32:00,
2013-06-24 05:37:00,70.7,69.5,30.15,East,99,0.0,0.0,96,0.00,,---,0.00,VWS V14.01,2013-06-24 09:37:00,
2013-06-24 05:43:00,70.6,69.4,30.15,East,99,0.0,0.0,96,0.00,,---,0.00,VWS V14.01,2013-06-24 09:43:00,
2013-06-24 05:48:00,70.6,69.4,30.15,East,99,0.0,0.0,96,0.00,,---,0.00,VWS V14.01,2013-06-24 09:48:00,
2013-06-24 05:53:00,70.5,69.3,30.15,East,99,0.0,0.0,96,0.00,,---,0.00,VWS V14.01,2013-06-24 09:53:00,
2013-06-24 05:58:00,70.4,69.2,30.16,East,99,0.0,0.0,96,0.00,,---,0.00,VWS V14.01,2013-06-24 09:58:00,
2013-06-24 06:00:00,70.5,69.3,30.16,East,99,0.0,0.0,96,0.00,,---,0.00,VWS V14.01,2013-06-24 10:00:00,
2013-06-24 06:03:00,70.6,69.4,30.16,East,99,0.0,0.0,96,0.00,,---,0.00,VWS V14.01,2013-06-24 10:03:00,
2013-06-24 06:08:00,70.8,69.6,30.16,East,99,0.0,0.0,96,0.00,,---,0.00,VWS V14.01,2013-06-24 10:08:00,
2013-06-24 06:13:00,70.9,69.7,30.16,East,99,0.0,0.0,96,0.00,,---,0.00,VWS V14.01,2013-06-24 10:13:00,
2013-06-24 06:18:00,71.0,69.8,30.15,East,99,0.0,0.0,96,0.00,,---,0.00,VWS V14.01,2013-06-24 10:18:00,
2013-06-24 06:23:00,71.0,69.8,30.15,East,99,0.0,1.0,96,0.00,,---,0.00,VWS V14.01,2013-06-24 10:23:00,
2013-06-24 06:29:00,71.0,69.8,30.15,East,99,0.0,1.0,96,0.00,,---,0.00,VWS V14.01,2013-06-24 10:29:00,
2013-06-24 06:30:00,70.9,69.7,30.15,East,99,0.0,1.0,96,0.00,,---,0.00,VWS V14.01,2013-06-24 10:30:00,
2013-06-24 06:34:00,70.9,69.7,30.15,East,99,0.0,0.0,96,0.00,,---,0.00,VWS V14.01,2013-06-24 10:34:00,
2013-06-24 06:39:00,70.9,69.7,30.16,East,99,0.0,1.0,96,0.00,,---,0.00,VWS V14.01,2013-06-24 10:39:00,
2013-06-24 06:44:00,70.9,69.7,30.16,East,99,0.0,1.0,96,0.00,,---,0.00,VWS V14.01,2013-06-24 10:44:00,
2013-06-24 06:49:00,71.0,69.8,30.16,East,99,0.0,1.0,96,0.00,,---,0.00,VWS V14.01,2013-06-24 10:49:00,
2013-06-24 06:54:00,71.0,69.8,30.16,East,99,0.0,1.0,96,0.00,,---,0.00,VWS V14.01,2013-06-24 10:54:00,
2013-06-24 06:59:00,70.9,69.7,30.16,East,99,0.0,1.0,96,0.00,,---,0.00,VWS V14.01,2013-06-24 10:59:00,
2013-06-24 07:00:00,71.0,69.8,30.16,East,99,0.0,1.0,96,0.00,,---,0.00,VWS V14.01,2013-06-24 11:00:00,
2013-06-24 07:04:00,70.9,69.7,30.16,East,99,0.0,0.0,96,0.00,,---,0.00,VWS V14.01,2013-06-24 11:04:00,
2013-06-24 07:09:00,71.0,69.8,30.16,East,99,0.0,0.0,96,0.00,,---,0.00,VWS V14.01,2013-06-24 11:09:00,
2013-06-24 07:14:00,71.0,69.8,30.17,East,99,0.0,0.0,96,0.00,,---,0.00,VWS V14.01,2013-06-24 11:14:00,
2013-06-24 07:19:00,71.1,69.9,30.17,East,99,0.0,1.0,96,0.00,,---,0.00,VWS V14.01,2013-06-24 11:19:00,
2013-06-24 07:25:00,71.3,70.1,30.16,East,99,0.0,1.0,96,0.00,,---,0.00,VWS V14.01,2013-06-24 11:25:00,
2013-06-24 07:30:00,71.9,70.7,30.17,East,99,0.0,1.0,96,0.00,,---,0.00,VWS V14.01,2013-06-24 11:30:00,
2013-06-24 07:35:00,72.4,71.2,30.17,East,99,0.0,0.0,96,0.00,,---,0.00,VWS V14.01,2013-06-24 11:35:00,
2013-06-24 07:40:00,72.8,71.6,30.17,East,99,0.0,0.0,96,0.00,,---,0.00,VWS V14.01,2013-06-24 11:40:00,
2013-06-24 07:45:00,73.2,72.0,30.17,East,99,0.0,0.0,96,0.00,,---,0.00,VWS V14.01,2013-06-24 11:45:00,
2013-06-24 07:50:00,73.6,72.4,30.17,East,99,0.0,0.0,96,0.00,,---,0.00,VWS V14.01,2013-06-24 11:50:00,
2013-06-24 07:55:00,73.8,72.6,30.17,East,99,0.0,0.0,96,0.00,,---,0.00,VWS V14.01,2013-06-24 11:55:00,
2013-06-24 08:00:00,74.1,72.6,30.17,East,99,1.0,1.0,95,0.00,,---,0.00,VWS V14.01,2013-06-24 12:00:00,
2013-06-24 08:05:00,74.5,72.7,30.17,East,99,2.0,4.0,94,0.00,,---,0.00,VWS V14.01,2013-06-24 12:05:00,
2013-06-24 08:10:00,74.8,72.6,30.17,East,99,0.0,4.0,93,0.00,,---,0.00,VWS V14.01,2013-06-24 12:10:00,
2013-06-24 08:15:00,75.1,72.6,30.17,East,99,1.0,4.0,92,0.00,,---,0.00,VWS V14.01,2013-06-24 12:15:00,
2013-06-24 08:20:00,75.4,72.6,30.17,East,99,0.0,4.0,91,0.00,,---,0.00,VWS V14.01,2013-06-24 12:20:00,
2013-06-24 08:25:00,75.8,72.7,30.17,East,99,2.0,4.0,90,0.00,,---,0.00,VWS V14.01,2013-06-24 12:25:00,
2013-06-24 08:30:00,75.5,71.7,30.18,East,99,0.0,0.0,88,0.00,,---,0.00,VWS V14.01,2013-06-24 12:30:00,
2013-06-24 08:35:00,75.4,71.9,30.18,East,99,0.0,1.0,89,0.00,,---,0.00,VWS V14.01,2013-06-24 12:35:00,
2013-06-24 08:40:00,75.5,72.0,30.18,East,99,0.0,1.0,89,0.00,,---,0.00,VWS V14.01,2013-06-24 12:40:00,
2013-06-24 08:46:00,75.6,72.1,30.18,East,99,4.0,4.0,89,0.00,,---,0.00,VWS V14.01,2013-06-24 12:46:00,
2013-06-24 08:51:00,75.6,71.8,30.18,East,99,0.0,5.0,88,0.00,,---,0.00,VWS V14.01,2013-06-24 12:51:00,
2013-06-24 08:56:00,75.7,72.2,30.19,East,99,1.0,5.0,89,0.00,,---,0.00,VWS V14.01,2013-06-24 12:56:00,
2013-06-24 09:00:00,75.7,71.9,30.19,East,99,3.0,7.0,88,0.00,,---,0.00,VWS V14.01,2013-06-24 13:00:00,
2013-06-24 09:01:00,75.7,72.2,30.19,East,98,3.0,10.0,89,0.01,,---,0.01,VWS V14.01,2013-06-24 13:01:00,
2013-06-24 09:06:00,75.4,71.9,30.19,East,100,6.0,10.0,89,0.01,,---,0.01,VWS V14.01,2013-06-24 13:06:00,
2013-06-24 09:11:00,75.1,72.0,30.19,East,97,0.0,10.0,90,0.01,,---,0.01,VWS V14.01,2013-06-24 13:11:00,
2013-06-24 09:16:00,74.8,71.7,30.19,East,97,2.0,10.0,90,0.01,,---,0.01,VWS V14.01,2013-06-24 13:16:00,
2013-06-24 09:21:00,75.0,71.9,30.19,East,97,1.0,10.0,90,0.01,,---,0.01,VWS V14.01,2013-06-24 13:21:00,
2013-06-24 09:26:00,75.1,71.6,30.19,East,97,1.0,10.0,89,0.01,,---,0.01,VWS V14.01,2013-06-24 13:26:00,
2013-06-24 09:30:00,75.2,71.4,30.19,East,97,0.0,10.0,88,0.01,,---,0.01,VWS V14.01,2013-06-24 13:30:00,
2013-06-24 09:31:00,75.2,71.4,30.19,East,97,3.0,4.0,88,0.01,,---,0.01,VWS V14.01,2013-06-24 13:31:00,
2013-06-24 09:37:00,75.2,71.4,30.19,East,97,0.0,4.0,88,0.01,,---,0.01,VWS V14.01,2013-06-24 13:37:00,
2013-06-24 09:42:00,75.4,71.6,30.20,East,97,0.0,4.0,88,0.01,,---,0.01,VWS V14.01,2013-06-24 13:42:00,
2013-06-24 09:47:00,75.7,71.9,30.20,East,97,1.0,4.0,88,0.01,,---,0.01,VWS V14.01,2013-06-24 13:47:00,
2013-06-24 09:52:00,76.2,72.1,30.20,East,96,0.0,4.0,87,0.01,,---,0.01,VWS V14.01,2013-06-24 13:52:00,
2013-06-24 09:57:00,76.5,71.7,30.20,East,96,0.0,4.0,85,0.01,,---,0.01,VWS V14.01,2013-06-24 13:57:00,
2013-06-24 10:00:00,76.6,71.4,30.20,East,97,1.0,4.0,84,0.01,,---,0.01,VWS V14.01,2013-06-24 14:00:00,
2013-06-24 10:02:00,76.6,71.8,30.20,East,97,2.0,5.0,85,0.01,,---,0.01,VWS V14.01,2013-06-24 14:02:00,
2013-06-24 10:08:00,76.6,71.8,30.20,East,97,0.0,5.0,85,0.01,,---,0.01,VWS V14.01,2013-06-24 14:08:00,
2013-06-24 10:12:00,76.8,71.9,30.20,East,96,0.0,5.0,85,0.01,,---,0.01,VWS V14.01,2013-06-24 14:12:00,
2013-06-24 10:17:00,77.2,72.3,30.20,East,97,2.0,5.0,85,0.01,,---,0.01,VWS V14.01,2013-06-24 14:17:00,
2013-06-24 10:23:00,77.8,72.6,30.19,East,96,0.0,5.0,84,0.01,,---,0.01,VWS V14.01,2013-06-24 14:23:00,
2013-06-24 10:28:00,78.5,72.6,30.19,East,96,1.0,6.0,82,0.01,,---,0.01,VWS V14.01,2013-06-24 14:28:00,
2013-06-24 10:30:00,78.5,72.2,30.19,East,96,2.0,6.0,81,0.01,,---,0.01,VWS V14.01,2013-06-24 14:30:00,
2013-06-24 10:33:00,78.7,73.1,30.19,East,96,3.0,3.0,83,0.00,,---,0.01,VWS V14.01,2013-06-24 14:33:00,
2013-06-24 10:38:00,79.3,73.0,30.19,East,87,2.0,6.0,81,0.00,,---,0.01,VWS V14.01,2013-06-24 14:38:00,
2013-06-24 10:43:00,79.3,72.2,30.19,NW,306,3.0,7.0,79,0.00,,---,0.01,VWS V14.01,2013-06-24 14:43:00,
2013-06-24 10:49:00,78.8,72.1,30.19,West,263,3.0,7.0,80,0.00,,---,0.01,VWS V14.01,2013-06-24 14:49:00,
2013-06-24 10:54:00,78.6,71.9,30.19,West,263,1.0,7.0,80,0.00,,---,0.01,VWS V14.01,2013-06-24 14:54:00,
2013-06-24 10:59:00,78.6,72.3,30.19,West,266,0.0,7.0,81,0.00,,---,0.01,VWS V14.01,2013-06-24 14:59:00,
2013-06-24 11:00:00,78.7,72.4,30.19,West,266,0.0,7.0,81,0.00,,---,0.01,VWS V14.01,2013-06-24 15:00:00,
2013-06-24 11:04:00,78.9,72.2,30.19,West,265,1.0,5.0,80,0.00,,---,0.01,VWS V14.01,2013-06-24 15:04:00,
2013-06-24 11:09:00,79.4,72.7,30.19,West,265,3.0,5.0,80,0.00,,---,0.01,VWS V14.01,2013-06-24 15:09:00,
2013-06-24 11:14:00,79.4,72.7,30.19,West,266,0.0,5.0,80,0.00,,---,0.01,VWS V14.01,2013-06-24 15:14:00,
2013-06-24 11:19:00,79.4,72.7,30.19,West,266,0.0,5.0,80,0.00,,---,0.01,VWS V14.01,2013-06-24 15:19:00,
2013-06-24 11:24:00,79.5,72.4,30.19,West,265,3.0,5.0,79,0.00,,---,0.01,VWS V14.01,2013-06-24 15:24:00,
2013-06-24 11:29:00,79.8,72.3,30.19,West,265,4.0,5.0,78,0.00,,---,0.01,VWS V14.01,2013-06-24 15:29:00,
2013-06-24 11:30:00,79.9,72.1,30.19,West,265,3.0,5.0,77,0.00,,---,0.01,VWS V14.01,2013-06-24 15:30:00,
2013-06-24 11:34:00,80.2,72.7,30.19,West,264,5.0,5.0,78,0.00,,---,0.01,VWS V14.01,2013-06-24 15:34:00,
2013-06-24 11:39:00,80.5,72.6,30.19,West,265,1.0,5.0,77,0.00,,---,0.01,VWS V14.01,2013-06-24 15:39:00,
2013-06-24 11:45:00,80.9,72.6,30.19,West,265,0.0,5.0,76,0.00,,---,0.01,VWS V14.01,2013-06-24 15:45:00,
2013-06-24 11:50:00,81.7,73.4,30.19,West,265,1.0,5.0,76,0.00,,---,0.01,VWS V14.01,2013-06-24 15:50:00,
2013-06-24 11:55:00,81.6,72.9,30.18,West,264,2.0,6.0,75,0.00,,---,0.01,VWS V14.01,2013-06-24 15:55:00,
2013-06-24 12:00:00,81.5,72.8,30.19,West,265,1.0,6.0,75,0.00,,---,0.01,VWS V14.01,2013-06-24 16:00:00,
2013-06-24 12:05:00,81.0,72.7,30.19,West,271,0.0,7.0,76,0.00,,---,0.01,VWS V14.01,2013-06-24 16:05:00,
2013-06-24 12:10:00,80.5,72.6,30.18,West,271,2.0,7.0,77,0.00,,---,0.01,VWS V14.01,2013-06-24 16:10:00,
2013-06-24 12:15:00,80.4,73.3,30.19,West,271,1.0,7.0,79,0.00,,---,0.01,VWS V14.01,2013-06-24 16:15:00,
2013-06-24 12:20:00,81.6,73.7,30.18,West,271,0.0,7.0,77,0.00,,---,0.01,VWS V14.01,2013-06-24 16:20:00,
2013-06-24 12:25:00,82.7,73.2,30.18,West,274,4.0,7.0,73,0.00,,---,0.01,VWS V14.01,2013-06-24 16:25:00,
2013-06-24 12:30:00,82.8,73.7,30.18,West,265,2.0,2.0,74,0.00,,---,0.01,VWS V14.01,2013-06-24 16:30:00,
2013-06-24 12:35:00,83.7,74.5,30.18,West,265,0.0,7.0,74,0.00,,---,0.01,VWS V14.01,2013-06-24 16:35:00,
2013-06-24 12:40:00,84.5,74.9,30.18,West,261,2.0,7.0,73,0.00,,---,0.01,VWS V14.01,2013-06-24 16:40:00,
2013-06-24 12:46:00,84.7,73.4,30.18,West,271,5.0,8.0,69,0.00,,---,0.01,VWS V14.01,2013-06-24 16:46:00,
2013-06-24 12:51:00,83.6,73.6,30.17,West,271,1.0,8.0,72,0.00,,---,0.01,VWS V14.01,2013-06-24 16:51:00,
2013-06-24 12:56:00,83.7,73.7,30.17,West,273,4.0,8.0,72,0.00,,---,0.01,VWS V14.01,2013-06-24 16:56:00,
2013-06-24 13:00:00,83.3,73.3,30.17,West,267,1.0,9.0,72,0.00,,---,0.01,VWS V14.01,2013-06-24 17:00:00,
2013-06-24 13:01:00,83.2,73.7,30.17,West,271,5.0,6.0,73,0.00,,---,0.01,VWS V14.01,2013-06-24 17:01:00,
2013-06-24 13:06:00,83.3,74.2,30.17,West,271,3.0,7.0,74,0.00,,---,0.01,VWS V14.01,2013-06-24 17:06:00,
2013-06-24 13:11:00,83.6,74.0,30.17,West,280,3.0,8.0,73,0.00,,---,0.01,VWS V14.01,2013-06-24 17:11:00,
2013-06-24 13:16:00,83.1,74.0,30.17,West,279,6.0,8.0,74,0.00,,---,0.01,VWS V14.01,2013-06-24 17:16:00,
2013-06-24 13:22:00,82.8,73.7,30.17,West,275,2.0,8.0,74,0.00,,---,0.01,VWS V14.01,2013-06-24 17:22:00,
2013-06-24 13:27:00,82.6,74.3,30.17,West,275,4.0,8.0,76,0.00,,---,0.01,VWS V14.01,2013-06-24 17:27:00,
2013-06-24 13:30:00,82.2,73.9,30.17,WSW,253,4.0,8.0,76,0.00,,---,0.01,VWS V14.01,2013-06-24 17:30:00,
2013-06-24 13:32:00,81.9,74.0,30.16,WSW,253,3.0,5.0,77,0.00,,---,0.01,VWS V14.01,2013-06-24 17:32:00,
2013-06-24 13:37:00,82.1,74.6,30.16,WSW,253,0.0,5.0,78,0.00,,---,0.01,VWS V14.01,2013-06-24 17:37:00,
2013-06-24 13:42:00,82.2,74.3,30.16,WSW,245,3.0,6.0,77,0.00,,---,0.01,VWS V14.01,2013-06-24 17:42:00,
2013-06-24 13:47:00,82.1,73.4,30.16,WSW,238,5.0,6.0,75,0.00,,---,0.01,VWS V14.01,2013-06-24 17:47:00,
2013-06-24 13:52:00,82.3,73.6,30.15,WSW,241,3.0,6.0,75,0.00,,---,0.01,VWS V14.01,2013-06-24 17:52:00,
2013-06-24 13:57:00,83.4,73.4,30.15,West,259,4.0,10.0,72,0.00,,---,0.01,VWS V14.01,2013-06-24 17:57:00,
2013-06-24 14:00:00,83.9,73.5,30.15,West,261,3.0,10.0,71,0.00,,---,0.01,VWS V14.01,2013-06-24 18:00:00,
2013-06-24 14:02:00,84.1,74.1,30.15,West,261,4.0,4.0,72,0.00,,---,0.01,VWS V14.01,2013-06-24 18:02:00,
2013-06-24 14:08:00,83.7,73.3,30.14,WSW,246,4.0,6.0,71,0.00,,---,0.01,VWS V14.01,2013-06-24 18:08:00,
2013-06-24 14:13:00,83.1,72.7,30.14,SW,218,4.0,9.0,71,0.00,,---,0.01,VWS V14.01,2013-06-24 18:13:00,
2013-06-24 14:18:00,82.8,72.9,30.14,South,191,3.0,9.0,72,0.00,,---,0.01,VWS V14.01,2013-06-24 18:18:00,
2013-06-24 14:20:00,82.5,73.4,30.14,South,183,0.0,9.0,74,0.00,,---,0.01,VWS V14.01,2013-06-24 18:20:00,
2013-06-24 15:11:00,82.4,73.3,30.14,South,183,0.0,9.0,74,0.00,,---,0.01,VWS V14.01,2013-06-24 19:11:00,
2013-06-24 15:16:00,86.6,73.4,30.11,SW,219,3.0,9.0,65,0.00,,---,0.01,VWS V14.01,2013-06-24 19:16:00,
2013-06-24 15:22:00,87.1,73.0,30.11,West,279,3.0,9.0,63,0.00,,---,0.01,VWS V14.01,2013-06-24 19:22:00,
2013-06-24 15:27:00,87.0,73.4,30.11,West,259,6.0,9.0,64,0.00,,---,0.01,VWS V14.01,2013-06-24 19:27:00,
2013-06-24 15:30:00,86.6,72.5,30.11,West,259,3.0,9.0,63,0.00,,---,0.01,VWS V14.01,2013-06-24 19:30:00,
2013-06-24 15:32:00,86.4,73.7,30.11,WSW,258,1.0,4.0,66,0.00,,---,0.01,VWS V14.01,2013-06-24 19:32:00,
2013-06-24 15:37:00,86.4,73.7,30.11,West,263,7.0,7.0,66,0.00,,---,0.01,VWS V14.01,2013-06-24 19:37:00,
2013-06-24 15:42:00,85.7,73.9,30.11,SW,234,4.0,11.0,68,0.00,,---,0.01,VWS V14.01,2013-06-24 19:42:00,
2013-06-24 15:47:00,86.0,74.2,30.12,SW,227,7.0,11.0,68,0.00,,---,0.01,VWS V14.01,2013-06-24 19:47:00,
2013-06-24 15:52:00,84.7,73.0,30.11,SW,218,5.0,12.0,68,0.00,,---,0.01,VWS V14.01,2013-06-24 19:52:00,
2013-06-24 15:57:00,84.9,73.6,30.11,WSW,241,6.0,12.0,69,0.00,,---,0.01,VWS V14.01,2013-06-24 19:57:00,
2013-06-24 16:00:00,85.3,74.0,30.11,SW,222,7.0,12.0,69,0.00,,---,0.01,VWS V14.01,2013-06-24 20:00:00,
2013-06-24 16:02:00,85.1,73.8,30.11,SW,219,4.0,8.0,69,0.00,,---,0.01,VWS V14.01,2013-06-24 20:02:00,
2013-06-24 16:07:00,84.7,73.8,30.11,West,261,3.0,9.0,70,0.00,,---,0.01,VWS V14.01,2013-06-24 20:07:00,
2013-06-24 16:12:00,85.1,73.8,30.11,West,280,3.0,9.0,69,0.00,,---,0.01,VWS V14.01,2013-06-24 20:12:00,
2013-06-24 17:15:00,85.7,73.9,30.10,West,263,3.0,9.0,68,0.00,,---,0.01,VWS V14.01,2013-06-24 21:15:00,
2013-06-24 17:20:00,85.5,73.7,30.09,West,269,4.0,12.0,68,0.00,,---,0.01,VWS V14.01,2013-06-24 21:20:00,
2013-06-24 17:25:00,85.7,74.4,30.09,West,272,4.0,12.0,69,0.00,,---,0.01,VWS V14.01,2013-06-24 21:25:00,
2013-06-24 17:30:00,85.3,73.1,30.09,West,279,3.0,9.0,67,0.00,,---,0.01,VWS V14.01,2013-06-24 21:30:00,
2013-06-24 17:36:00,85.1,73.4,30.10,WSW,244,4.0,10.0,68,0.00,,---,0.01,VWS V14.01,2013-06-24 21:36:00,
2013-06-24 17:41:00,85.7,73.5,30.10,West,268,2.0,10.0,67,0.00,,---,0.01,VWS V14.01,2013-06-24 21:41:00,
2013-06-24 19:19:00,85.1,73.8,30.09,SW,219,0.0,10.0,69,0.00,,---,0.01,VWS V14.01,2013-06-24 23:19:00,
2013-06-24 19:24:00,81.7,72.6,30.08,WSW,257,3.0,10.0,74,0.00,,---,0.01,VWS V14.01,2013-06-24 23:24:00,
2013-06-24 19:29:00,81.8,73.1,30.09,WSW,257,2.0,10.0,75,0.00,,---,0.01,VWS V14.01,2013-06-24 23:29:00,
2013-06-24 19:30:00,81.8,73.1,30.09,WSW,257,3.0,10.0,75,0.00,,---,0.01,VWS V14.01,2013-06-24 23:30:00,
2013-06-24 19:34:00,81.6,72.9,30.09,WSW,257,1.0,3.0,75,0.00,,---,0.01,VWS V14.01,2013-06-24 23:34:00,
2013-06-24 19:39:00,81.4,73.5,30.09,WSW,257,0.0,3.0,77,0.00,,---,0.01,VWS V14.01,2013-06-24 23:39:00,
2013-06-24 19:44:00,81.2,73.3,30.09,WSW,257,0.0,3.0,77,0.00,,---,0.01,VWS V14.01,2013-06-24 23:44:00,
2013-06-24 19:49:00,81.3,73.4,30.09,WSW,257,4.0,4.0,77,0.00,,---,0.01,VWS V14.01,2013-06-24 23:49:00,
2013-06-24 20:21:00,81.3,73.4,30.09,WSW,257,4.0,4.0,77,0.00,,---,0.01,VWS V14.01,2013-06-25 00:21:00,
2013-06-24 20:26:00,79.4,71.9,30.11,WSW,257,2.0,4.0,78,0.00,,---,0.01,VWS V14.01,2013-06-25 00:26:00,
2013-06-24 20:30:00,79.3,71.8,30.11,WSW,257,2.0,4.0,78,0.00,,---,0.01,VWS V14.01,2013-06-25 00:30:00,
2013-06-24 20:31:00,79.3,71.8,30.12,WSW,257,2.0,4.0,78,0.00,,---,0.01,VWS V14.01,2013-06-25 00:31:00,
2013-06-24 20:36:00,79.4,71.6,30.12,WSW,257,1.0,4.0,77,0.00,,---,0.01,VWS V14.01,2013-06-25 00:36:00,
2013-06-24 20:41:00,79.4,71.9,30.12,WSW,257,0.0,4.0,78,0.00,,---,0.01,VWS V14.01,2013-06-25 00:41:00,
2013-06-24 20:46:00,79.2,71.8,30.12,WSW,257,0.0,4.0,78,0.00,,---,0.01,VWS V14.01,2013-06-25 00:46:00,
2013-06-24 20:51:00,78.9,71.8,30.12,WSW,257,0.0,4.0,79,0.00,,---,0.01,VWS V14.01,2013-06-25 00:51:00,
2013-06-24 21:23:00,78.9,71.8,30.12,WSW,257,0.0,4.0,79,0.00,,---,0.01,VWS V14.01,2013-06-25 01:23:00,
2013-06-24 21:28:00,77.7,71.8,30.11,WSW,257,1.0,4.0,82,0.00,,---,0.01,VWS V14.01,2013-06-25 01:28:00,
2013-06-24 21:30:00,77.6,71.7,30.11,WSW,257,0.0,4.0,82,0.00,,---,0.01,VWS V14.01,2013-06-25 01:30:00,
2013-06-24 21:33:00,77.5,71.9,30.10,WSW,257,0.0,0.0,83,0.00,,---,0.01,VWS V14.01,2013-06-25 01:33:00,
2013-06-24 21:38:00,77.3,71.7,30.10,WSW,257,0.0,2.0,83,0.00,,---,0.01,VWS V14.01,2013-06-25 01:38:00,
2013-06-24 21:44:00,76.7,71.5,30.10,WSW,257,0.0,2.0,84,0.00,,---,0.01,VWS V14.01,2013-06-25 01:44:00,
2013-06-24 21:49:00,76.3,71.5,30.10,WSW,257,0.0,2.0,85,0.00,,---,0.01,VWS V14.01,2013-06-25 01:49:00,
2013-06-24 21:53:00,76.1,71.6,30.10,WSW,257,0.0,2.0,86,0.00,,---,0.01,VWS V14.01,2013-06-25 01:53:00,
2013-06-24 22:24:00,76.1,71.6,30.10,WSW,257,0.0,2.0,86,0.00,,---,0.01,VWS V14.01,2013-06-25 02:24:00,
2013-06-24 22:29:00,74.5,71.1,30.10,WSW,257,0.0,2.0,89,0.00,,---,0.01,VWS V14.01,2013-06-25 02:29:00,
2013-06-24 22:30:00,74.5,71.1,30.10,WSW,257,0.0,2.0,89,0.00,,---,0.01,VWS V14.01,2013-06-25 02:30:00,
2013-06-24 22:34:00,74.3,71.2,30.10,WSW,257,0.0,0.0,90,0.00,,---,0.01,VWS V14.01,2013-06-25 02:34:00,
2013-06-24 22:40:00,74.1,71.0,30.10,WSW,257,0.0,0.0,90,0.00,,---,0.01,VWS V14.01,2013-06-25 02:40:00,
2013-06-24 22:45:00,73.9,71.1,30.10,WSW,257,0.0,0.0,91,0.00,,---,0.01,VWS V14.01,2013-06-25 02:45:00,
2013-06-24 22:50:00,73.6,70.8,30.10,WSW,257,0.0,0.0,91,0.00,,---,0.01,VWS V14.01,2013-06-25 02:50:00,
2013-06-24 22:55:00,73.4,70.6,30.10,WSW,257,0.0,0.0,91,0.00,,---,0.01,VWS V14.01,2013-06-25 02:55:00,
2013-06-24 22:58:00,73.4,70.9,30.11,WSW,257,0.0,0.0,92,0.00,,---,0.01,VWS V14.01,2013-06-25 02:58:00,